createdAt,value
2022-08-19T00:01:40.087Z,22.70
2022-08-19T00:05:42.690Z,22.69
2022-08-19T00:09:44.316Z,22.67
2022-08-19T00:13:49.350Z,22.66
2022-08-19T00:17:51.000Z,22.63
2022-08-19T00:21:52.800Z,22.60
2022-08-19T00:25:54.376Z,22.59
2022-08-19T00:29:56.082Z,22.60
2022-08-19T00:33:58.054Z,22.59
2022-08-19T00:38:00.544Z,22.59
2022-08-19T00:42:02.381Z,22.54
2022-08-19T00:46:05.655Z,22.52
2022-08-19T00:50:09.354Z,22.48
2022-08-19T00:54:11.074Z,22.46
2022-08-19T00:58:16.035Z,22.45
2022-08-19T01:02:18.011Z,22.45
2022-08-19T01:06:20.599Z,22.45
2022-08-19T01:10:29.946Z,22.44
2022-08-19T01:14:33.940Z,22.44
2022-08-19T01:18:42.201Z,22.42
2022-08-19T01:22:51.727Z,22.41
2022-08-19T01:26:53.946Z,22.45
2022-08-19T01:30:55.875Z,22.48
2022-08-19T01:34:57.599Z,22.45
2022-08-19T01:39:01.353Z,22.45
2022-08-19T01:43:03.997Z,22.41
2022-08-19T01:47:05.881Z,22.42
2022-08-19T01:51:09.269Z,22.41
2022-08-19T01:55:14.559Z,22.36
2022-08-19T01:59:19.507Z,22.35
2022-08-19T02:03:21.077Z,22.33
2022-08-19T02:07:22.717Z,22.30
2022-08-19T02:11:42.527Z,22.33
2022-08-19T02:15:44.173Z,22.35
2022-08-19T02:19:45.736Z,22.33
2022-08-19T02:23:47.969Z,22.31
2022-08-19T02:27:49.527Z,22.33
2022-08-19T02:31:52.576Z,22.39
2022-08-19T02:35:54.151Z,22.45
2022-08-19T02:39:55.844Z,22.45
2022-08-19T02:44:23.020Z,22.44
2022-08-19T02:48:22.345Z,22.39
2022-08-19T02:52:24.243Z,22.39
2022-08-19T02:56:28.111Z,22.39
2022-08-19T03:00:29.689Z,22.41
2022-08-19T03:04:31.242Z,22.41
2022-08-19T03:08:32.873Z,22.31
2022-08-19T03:12:37.533Z,22.27
2022-08-19T03:16:48.301Z,22.26
2022-08-19T03:20:53.796Z,22.20
2022-08-19T03:24:55.372Z,22.19
2022-08-19T03:28:58.412Z,22.12
2022-08-19T03:33:00.373Z,22.08
2022-08-19T03:37:07.312Z,22.02
2022-08-19T03:41:13.839Z,21.93
2022-08-19T03:45:15.417Z,21.86
2022-08-19T03:49:18.318Z,21.82
2022-08-19T03:53:20.237Z,21.82
2022-08-19T03:57:21.941Z,21.82
2022-08-19T04:01:35.535Z,21.81
2022-08-19T04:05:38.804Z,21.82
2022-08-19T04:09:40.401Z,21.79
2022-08-19T04:13:43.134Z,21.77
2022-08-19T04:17:44.679Z,21.79
2022-08-19T04:21:50.760Z,21.77
2022-08-19T04:25:52.333Z,21.73
2022-08-19T04:29:54.595Z,21.68
2022-08-19T04:34:03.344Z,21.68
2022-08-19T04:38:05.494Z,21.68
2022-08-19T04:42:30.747Z,21.67
2022-08-19T04:46:39.970Z,21.67
2022-08-19T04:50:58.382Z,21.73
2022-08-19T04:55:00.438Z,21.74
2022-08-19T04:59:05.276Z,21.75
2022-08-19T05:03:07.587Z,21.82
2022-08-19T05:07:09.405Z,21.85
2022-08-19T05:11:17.251Z,21.93
2022-08-19T05:15:19.829Z,22.01
2022-08-19T05:19:40.099Z,22.05
2022-08-19T05:23:42.063Z,22.09
2022-08-19T05:27:43.658Z,22.09
2022-08-19T05:31:45.936Z,22.14
2022-08-19T05:35:49.227Z,22.21
2022-08-19T05:39:51.663Z,22.26
2022-08-19T05:43:53.497Z,22.33
2022-08-19T05:47:55.187Z,22.38
2022-08-19T05:51:57.153Z,22.44
2022-08-19T05:55:59.071Z,22.48
2022-08-19T06:00:02.753Z,22.52
2022-08-19T06:04:19.092Z,22.57
2022-08-19T06:08:33.799Z,22.60
2022-08-19T06:12:36.830Z,22.64
2022-08-19T06:16:40.268Z,22.69
2022-08-19T06:20:55.354Z,22.72
2022-08-19T06:24:57.690Z,22.79
2022-08-19T06:28:59.328Z,22.82
2022-08-19T06:33:00.923Z,22.84
2022-08-19T06:37:03.723Z,23.11
2022-08-19T06:41:07.520Z,22.89
2022-08-19T06:45:09.864Z,22.96
2022-08-19T06:49:14.897Z,22.96
2022-08-19T06:53:16.512Z,22.96
2022-08-19T06:57:18.176Z,22.97
2022-08-19T07:01:21.220Z,22.99
2022-08-19T07:05:23.307Z,23.04
2022-08-19T07:09:24.898Z,23.14
2022-08-19T07:13:26.884Z,23.19
2022-08-19T07:17:28.452Z,23.25
2022-08-19T07:21:30.063Z,23.34
2022-08-19T07:25:32.077Z,23.44
2022-08-19T07:29:36.700Z,23.53
2022-08-19T07:33:40.977Z,23.63
2022-08-19T07:37:45.198Z,23.68
2022-08-19T07:41:47.483Z,23.69
2022-08-19T07:45:49.150Z,23.74
2022-08-19T07:49:50.695Z,23.86
2022-08-19T07:53:52.338Z,23.92
2022-08-19T07:57:54.554Z,24.04
2022-08-19T08:01:57.866Z,24.15
2022-08-19T08:06:17.829Z,24.29
2022-08-19T08:10:20.780Z,24.41
2022-08-19T08:14:29.056Z,24.60
2022-08-19T08:18:32.200Z,24.80
2022-08-19T08:22:52.862Z,24.89
2022-08-19T08:26:57.638Z,25.05
2022-08-19T08:31:00.134Z,25.05
2022-08-19T08:35:01.725Z,25.04
2022-08-19T08:39:03.409Z,25.04
2022-08-19T08:43:10.825Z,25.07
2022-08-19T08:47:16.750Z,25.19
2022-08-19T08:51:23.842Z,25.31
2022-08-19T08:55:36.976Z,25.49
2022-08-19T08:59:42.678Z,25.69
2022-08-19T09:03:46.293Z,26.00
2022-08-19T09:08:14.791Z,26.28
2022-08-19T09:12:26.994Z,26.29
2022-08-19T09:16:30.738Z,26.13
2022-08-19T09:20:32.425Z,26.11
2022-08-19T09:24:34.637Z,26.24
2022-08-19T09:28:37.893Z,26.38
2022-08-19T09:32:42.816Z,26.60
2022-08-19T09:36:44.493Z,26.87
2022-08-19T09:40:46.090Z,26.98
2022-08-19T09:44:47.871Z,26.96
2022-08-19T09:48:51.504Z,27.02
2022-08-19T09:52:57.447Z,27.33
2022-08-19T09:57:01.370Z,27.52
2022-08-19T10:01:07.848Z,27.46
2022-08-19T10:05:27.964Z,27.59
2022-08-19T10:09:34.348Z,27.71
2022-08-19T10:13:36.890Z,27.88
2022-08-19T10:17:38.486Z,27.99
2022-08-19T10:21:41.160Z,27.96
2022-08-19T10:25:43.717Z,27.93
2022-08-19T10:29:46.470Z,27.99
2022-08-19T10:33:53.999Z,28.14
2022-08-19T10:38:01.912Z,28.36
2022-08-19T10:42:08.111Z,28.65
2022-08-19T10:46:14.076Z,28.74
2022-08-19T10:50:37.015Z,28.35
2022-08-19T10:54:58.275Z,28.32
2022-08-19T10:59:07.394Z,28.45
2022-08-19T11:03:09.661Z,28.46
2022-08-19T11:07:12.770Z,28.55
2022-08-19T11:11:14.345Z,28.70
2022-08-19T11:15:16.770Z,28.73
2022-08-19T11:19:20.070Z,28.38
2022-08-19T11:23:21.764Z,28.35
2022-08-19T11:27:23.424Z,28.13
2022-08-19T11:31:29.680Z,28.33
2022-08-19T11:35:31.268Z,28.23
2022-08-19T11:39:34.650Z,28.38
2022-08-19T11:43:37.591Z,28.54
2022-08-19T11:47:39.682Z,28.73
2022-08-19T11:51:45.552Z,28.67
2022-08-19T11:55:48.406Z,28.79
2022-08-19T11:59:53.538Z,29.00
2022-08-19T12:03:56.821Z,29.17
2022-08-19T12:07:58.568Z,29.25
2022-08-19T12:12:00.300Z,29.33
2022-08-19T12:16:07.790Z,29.47
2022-08-19T12:20:12.190Z,29.67
2022-08-19T12:24:14.162Z,29.74
2022-08-19T12:28:16.443Z,29.89
2022-08-19T12:32:18.033Z,29.44
2022-08-19T12:36:19.610Z,29.70
2022-08-19T12:40:21.194Z,30.08
2022-08-19T12:44:27.681Z,30.04
2022-08-19T12:48:34.345Z,30.04
2022-08-19T12:52:41.776Z,30.16
2022-08-19T12:56:43.560Z,30.45
2022-08-19T13:00:45.251Z,30.73
2022-08-19T13:04:47.381Z,30.82
2022-08-19T13:08:49.040Z,31.05
2022-08-19T13:12:52.645Z,31.38
2022-08-19T13:16:54.189Z,31.47
2022-08-19T13:20:55.774Z,31.56
2022-08-19T13:24:57.842Z,31.62
2022-08-19T13:29:18.105Z,31.88
2022-08-19T13:33:19.907Z,32.12
2022-08-19T13:37:41.435Z,32.47
2022-08-19T13:41:50.877Z,32.16
2022-08-19T13:45:56.618Z,31.95
2022-08-19T13:49:58.179Z,31.91
2022-08-19T13:53:59.721Z,31.92
2022-08-19T13:58:02.769Z,31.97
2022-08-19T14:02:06.387Z,32.19
2022-08-19T14:06:08.091Z,32.25
2022-08-19T14:10:13.977Z,32.39
2022-08-19T14:14:16.557Z,32.34
2022-08-19T14:18:19.358Z,32.43
2022-08-19T14:22:22.291Z,32.28
2022-08-19T14:26:24.415Z,32.36
2022-08-19T14:30:29.720Z,32.36
2022-08-19T14:34:32.501Z,32.25
2022-08-19T14:38:34.619Z,32.35
2022-08-19T14:42:36.925Z,32.46
2022-08-19T14:46:38.843Z,32.39
2022-08-19T14:50:40.435Z,32.39
2022-08-19T14:54:42.291Z,32.43
2022-08-19T14:58:44.426Z,32.19
2022-08-19T15:02:46.092Z,32.06
2022-08-19T15:06:47.731Z,31.91
2022-08-19T15:10:49.728Z,31.82
2022-08-19T15:14:55.121Z,31.69
2022-08-19T15:19:00.707Z,31.60
2022-08-19T15:23:02.303Z,31.54
2022-08-19T15:27:03.948Z,31.50
2022-08-19T15:31:06.049Z,31.32
2022-08-19T15:35:08.115Z,31.07
2022-08-19T15:39:10.301Z,30.90
2022-08-19T15:43:11.936Z,30.85
2022-08-19T15:47:14.281Z,30.85
2022-08-19T15:51:16.421Z,30.86
2022-08-19T15:55:33.820Z,31.03
2022-08-19T15:59:56.450Z,31.40
2022-08-19T16:04:20.297Z,31.52
2022-08-19T16:08:21.880Z,31.54
2022-08-19T16:12:27.449Z,31.46
2022-08-19T16:16:33.594Z,31.25
2022-08-19T16:20:36.393Z,31.27
2022-08-19T16:24:38.296Z,31.23
2022-08-19T16:28:41.087Z,31.12
2022-08-19T16:32:44.434Z,30.90
2022-08-19T16:36:46.065Z,30.63
2022-08-19T16:40:49.100Z,30.37
2022-08-19T16:44:50.624Z,30.23
2022-08-19T16:48:52.184Z,30.10
2022-08-19T16:52:53.756Z,29.97
2022-08-19T16:56:56.045Z,29.89
2022-08-19T17:01:05.596Z,29.86
2022-08-19T17:05:08.444Z,29.84
2022-08-19T17:09:10.057Z,29.86
2022-08-19T17:13:14.070Z,29.89
2022-08-19T17:17:15.934Z,29.84
2022-08-19T17:21:28.137Z,29.73
2022-08-19T17:25:33.702Z,29.67
2022-08-19T17:29:35.612Z,29.60
2022-08-19T17:33:41.303Z,29.51
2022-08-19T17:37:43.176Z,29.41
2022-08-19T17:41:44.763Z,29.30
2022-08-19T17:45:46.738Z,29.20
2022-08-19T17:49:48.343Z,29.14
2022-08-19T17:53:52.808Z,29.10
2022-08-19T17:57:54.949Z,29.07
2022-08-19T18:01:56.597Z,29.00
2022-08-19T18:05:58.534Z,28.97
2022-08-19T18:10:02.010Z,28.92
2022-08-19T18:14:03.717Z,28.88
2022-08-19T18:18:05.480Z,28.82
2022-08-19T18:22:36.901Z,28.76
2022-08-19T18:26:39.386Z,28.67
2022-08-19T18:30:40.941Z,28.61
2022-08-19T18:34:45.848Z,28.57
2022-08-19T18:39:08.037Z,28.54
2022-08-19T18:43:19.697Z,28.52
2022-08-19T18:47:40.611Z,28.50
2022-08-19T18:51:42.297Z,28.45
2022-08-19T18:55:44.749Z,28.42
2022-08-19T18:59:48.193Z,28.36
2022-08-19T19:03:53.358Z,28.32
2022-08-19T19:07:55.111Z,28.27
2022-08-19T19:12:00.429Z,28.21
2022-08-19T19:16:02.233Z,28.17
2022-08-19T19:20:05.019Z,28.13
2022-08-19T19:24:08.956Z,28.06
2022-08-19T19:28:10.571Z,27.99
2022-08-19T19:32:21.460Z,27.91
2022-08-19T19:36:23.720Z,27.83
2022-08-19T19:40:25.616Z,27.69
2022-08-19T19:44:30.106Z,27.59
2022-08-19T19:48:32.698Z,27.43
2022-08-19T19:52:34.274Z,27.31
2022-08-19T19:56:35.935Z,27.23
2022-08-19T20:00:37.517Z,27.15
2022-08-19T20:04:39.195Z,27.08
2022-08-19T20:09:00.569Z,26.97
2022-08-19T20:13:02.829Z,26.88
2022-08-19T20:17:05.309Z,26.78
2022-08-19T20:21:06.948Z,26.66
2022-08-19T20:25:14.402Z,26.60
2022-08-19T20:29:39.410Z,26.50
2022-08-19T20:33:39.559Z,26.35
2022-08-19T20:37:41.573Z,26.23
2022-08-19T20:41:43.250Z,26.12
2022-08-19T20:45:44.999Z,26.06
2022-08-19T20:49:46.643Z,26.01
2022-08-19T20:53:48.215Z,25.97
2022-08-19T20:57:50.179Z,25.83
2022-08-19T21:01:52.839Z,25.76
2022-08-19T21:05:55.612Z,25.66
2022-08-19T21:09:57.277Z,25.61
2022-08-19T21:13:59.239Z,25.59
2022-08-19T21:18:00.824Z,25.56
2022-08-19T21:22:03.807Z,25.53
2022-08-19T21:26:05.418Z,25.49
2022-08-19T21:30:08.899Z,25.49
2022-08-19T21:34:10.608Z,25.46
2022-08-19T21:38:12.258Z,25.45
2022-08-19T21:42:14.423Z,25.38
2022-08-19T21:46:16.464Z,25.27
2022-08-19T21:50:21.044Z,25.20
2022-08-19T21:54:22.647Z,25.14
2022-08-19T21:58:30.155Z,25.04
2022-08-19T22:02:32.481Z,25.01
2022-08-19T22:06:34.112Z,24.99
2022-08-19T22:10:36.829Z,24.90
2022-08-19T22:14:39.289Z,24.82
2022-08-19T22:18:40.874Z,24.75
2022-08-19T22:22:50.205Z,24.71
2022-08-19T22:26:51.870Z,24.67
2022-08-19T22:30:53.605Z,24.67
2022-08-19T22:34:59.217Z,24.66
2022-08-19T22:39:00.822Z,24.66
2022-08-19T22:43:09.715Z,24.66
2022-08-19T22:47:11.372Z,24.61
2022-08-19T22:51:32.410Z,24.59
2022-08-19T22:55:36.107Z,24.49
2022-08-19T22:59:38.105Z,24.46
2022-08-19T23:03:39.848Z,24.46
2022-08-19T23:07:41.717Z,24.45
2022-08-19T23:11:51.029Z,24.39
2022-08-19T23:15:52.592Z,24.36
2022-08-19T23:19:54.852Z,24.36
2022-08-19T23:23:56.441Z,24.34
2022-08-19T23:28:17.101Z,24.23
2022-08-19T23:32:19.890Z,24.11
2022-08-19T23:36:22.589Z,24.12
2022-08-19T23:40:24.514Z,24.12
2022-08-19T23:44:26.631Z,24.08
2022-08-19T23:48:31.248Z,24.14
2022-08-19T23:52:41.853Z,24.16
2022-08-19T23:56:43.411Z,24.18
